Time;durP1;ratioP1;P1;durP2;ratioP2;P2;SDS_P1;SDS_P2;PMS_P1;PMS_P2;Temp;Humidity;BMP_temperature;BMP_pressure;BME280_temperature;BME280_humidity;BME280_pressure;Samples;Min_cycle;Max_cycle;Signal;HPM_P1;HPM_P2
2023/06/13 00:02:24;;;;;;;1.80;1.52;;;;;;;24.31;40.35;100551.56;4485125;28;20046;-62
2023/06/13 00:04:35;;;;;;;2.30;1.80;;;;;;;24.35;39.67;100561.09;4484908;28;20062;-62
2023/06/13 00:06:45;;;;;;;2.00;1.75;;;;;;;24.35;40.03;100568.91;4486180;28;20082;-62
2023/06/13 00:08:57;;;;;;;1.80;1.65;;;;;;;24.31;39.41;100560.22;4486579;28;20471;-62
2023/06/13 00:11:07;;;;;;;1.63;1.50;;;;;;;24.35;39.20;100566.03;4485565;28;20121;-62
2023/06/13 00:13:18;;;;;;;2.63;1.67;;;;;;;24.34;39.48;100570.97;4486092;28;20046;-62
2023/06/13 00:15:31;;;;;;;1.98;1.65;;;;;;;24.33;39.92;100557.78;4462527;28;20023;-62
2023/06/13 00:17:42;;;;;;;2.55;1.80;;;;;;;24.34;39.31;100567.28;4471831;28;20781;-62
2023/06/13 00:19:54;;;;;;;2.35;1.60;;;;;;;24.30;39.10;100552.78;4486796;28;20032;-62
2023/06/13 00:22:08;;;;;;;1.90;1.70;;;;;;;24.33;39.32;100562.69;4485069;28;20050;-62
2023/06/13 00:24:18;;;;;;;1.98;1.70;;;;;;;24.33;39.02;100559.81;4485818;28;20033;-62
2023/06/13 00:26:28;;;;;;;1.80;1.70;;;;;;;24.32;38.24;100555.28;4486621;28;20403;-62
2023/06/13 00:28:40;;;;;;;1.73;1.55;;;;;;;24.32;38.81;100553.25;4472152;28;20030;-62
2023/06/13 00:30:51;;;;;;;2.00;1.83;;;;;;;24.29;38.63;100551.13;4476314;28;20815;-62
2023/06/13 00:33:04;;;;;;;1.70;1.60;;;;;;;24.29;37.91;100554.00;4485432;28;20037;-62
2023/06/13 00:35:15;;;;;;;1.88;1.77;;;;;;;24.29;38.36;100554.00;4484058;28;20637;-62
2023/06/13 00:37:29;;;;;;;1.70;1.60;;;;;;;24.28;38.02;100552.34;4483872;28;20019;-62
2023/06/13 00:39:40;;;;;;;2.10;1.80;;;;;;;24.31;38.51;100562.28;4485880;28;20034;-62
2023/06/13 00:41:50;;;;;;;2.03;1.83;;;;;;;24.26;38.64;100542.44;4485500;28;20664;-62
2023/06/13 00:44:02;;;;;;;1.67;1.58;;;;;;;24.29;38.80;100553.19;4486346;28;20759;-62
2023/06/13 00:46:17;;;;;;;2.03;1.83;;;;;;;24.32;38.87;100561.06;4455224;28;20028;-62
2023/06/13 00:48:28;;;;;;;1.88;1.75;;;;;;;24.11;38.98;100524.13;4470999;28;20191;-62
2023/06/13 00:50:40;;;;;;;2.30;1.80;;;;;;;24.29;38.16;100550.31;4485961;28;20033;-62
2023/06/13 00:52:52;;;;;;;2.08;1.90;;;;;;;24.26;37.97;100542.44;4485426;28;20034;-63
2023/06/13 00:55:03;;;;;;;1.80;1.60;;;;;;;24.23;37.79;100544.03;4484894;28;21016;-62
2023/06/13 00:57:14;;;;;;;2.15;1.65;;;;;;;24.28;37.88;100558.13;4485368;28;20038;-62
2023/06/13 00:59:24;;;;;;;2.00;1.80;;;;;;;24.28;38.06;100551.50;4473961;28;20495;-62
2023/06/13 01:01:40;;;;;;;2.15;1.80;;;;;;;24.22;38.14;100541.56;4474071;28;20050;-62
2023/06/13 01:03:50;;;;;;;1.73;1.60;;;;;;;24.29;38.00;100550.31;4471276;28;20634;-62
2023/06/13 01:06:01;;;;;;;2.00;1.70;;;;;;;24.27;38.49;100547.81;4472876;28;20061;-62
2023/06/13 01:08:19;;;;;;;2.05;1.70;;;;;;;24.28;38.08;100552.34;4487560;28;20041;-62
2023/06/13 01:10:32;;;;;;;1.70;1.60;;;;;;;24.23;38.24;100544.03;4486386;28;20129;-62
2023/06/13 01:12:56;;;;;;;1.80;1.70;;;;;;;24.03;38.54;100510.84;4489161;28;20129;-62
2023/06/13 01:15:14;;;;;;;1.70;1.60;;;;;;;24.24;38.59;100547.75;4480782;28;20031;-62
2023/06/13 01:17:34;;;;;;;1.70;1.60;;;;;;;24.27;38.25;100546.97;4480545;28;20038;-62
2023/06/13 01:19:53;;;;;;;1.80;1.70;;;;;;;24.23;37.76;100538.28;4480524;28;20529;-62
2023/06/13 01:22:42;;;;;;;2.15;1.60;;;;;;;24.26;38.42;100549.03;4487824;28;20127;-62
2023/06/13 01:25:10;;;;;;;1.92;1.73;;;;;;;24.25;38.15;100544.50;4445272;28;20076;-63
2023/06/13 01:27:22;;;;;;;2.20;1.65;;;;;;;24.25;38.19;100544.50;4480996;28;20868;-62
2023/06/13 01:29:34;;;;;;;1.60;1.50;;;;;;;24.25;38.13;100543.66;4488034;28;20045;-62
2023/06/13 01:31:52;;;;;;;2.25;1.75;;;;;;;24.21;38.15;100537.84;4486879;28;20033;-62
2023/06/13 01:34:03;;;;;;;2.10;1.75;;;;;;;24.22;37.69;100539.50;4489394;28;20042;-62
2023/06/13 01:36:14;;;;;;;1.98;1.80;;;;;;;24.25;37.88;100538.72;4472580;28;20110;-62
2023/06/13 01:38:25;;;;;;;1.83;1.70;;;;;;;24.21;37.58;100528.38;4470020;28;20031;-62
2023/06/13 01:40:36;;;;;;;1.90;1.70;;;;;;;24.24;37.71;100539.13;4488548;28;20030;-62
2023/06/13 01:42:47;;;;;;;1.65;1.55;;;;;;;24.21;37.68;100532.09;4488112;28;20049;-62
2023/06/13 01:44:57;;;;;;;2.17;1.80;;;;;;;24.23;37.42;100538.28;4487523;28;20061;-62
2023/06/13 01:47:30;;;;;;;1.90;1.67;;;;;;;24.24;38.38;100528.41;4487682;28;20990;-62
2023/06/13 01:49:59;;;;;;;1.70;1.60;;;;;;;24.24;38.40;100527.56;4480849;28;21100;-62
2023/06/13 01:52:15;;;;;;;1.75;1.65;;;;;;;24.23;38.29;100523.84;4487900;28;20045;-62
2023/06/13 01:54:26;;;;;;;1.83;1.70;;;;;;;24.15;38.46;100513.44;4480028;28;20592;-62
2023/06/13 01:56:40;;;;;;;1.83;1.70;;;;;;;24.22;38.26;100527.97;4486766;28;20074;-62
2023/06/13 01:58:55;;;;;;;1.58;1.48;;;;;;;24.18;37.83;100520.50;4488079;28;20089;-62
2023/06/13 02:01:07;;;;;;;1.77;1.50;;;;;;;24.21;38.24;100523.44;4488376;28;20037;-62
2023/06/13 02:03:19;;;;;;;1.70;1.60;;;;;;;24.20;38.20;100521.75;4487377;28;20485;-62
2023/06/13 02:05:30;;;;;;;1.75;1.65;;;;;;;24.18;38.22;100517.63;4476149;28;20027;-62
2023/06/13 02:07:42;;;;;;;1.80;1.70;;;;;;;24.21;38.21;100522.59;4489211;28;20058;-62
2023/06/13 02:09:52;;;;;;;1.67;1.50;;;;;;;24.18;38.24;100514.72;4464067;28;20142;-62
2023/06/13 02:12:03;;;;;;;1.70;1.60;;;;;;;24.20;38.12;100521.75;4478370;28;20034;-62
2023/06/13 02:14:14;;;;;;;1.70;1.60;;;;;;;24.20;38.29;100515.16;4474838;28;20129;-62
2023/06/13 02:16:30;;;;;;;1.95;1.70;;;;;;;24.15;38.24;100504.81;4462166;28;20069;-62
2023/06/13 02:18:41;;;;;;;2.25;1.70;;;;;;;24.20;38.26;100516.00;4473260;28;20039;-62
2023/06/13 02:20:51;;;;;;;2.88;1.80;;;;;;;24.21;38.34;100523.44;4489029;28;20034;-62
2023/06/13 02:23:02;;;;;;;1.90;1.70;;;;;;;24.19;38.53;100511.47;4474129;28;20999;-62
2023/06/13 02:25:13;;;;;;;1.90;1.67;;;;;;;24.20;38.11;100513.09;4488318;28;20036;-62
2023/06/13 02:27:25;;;;;;;1.70;1.60;;;;;;;24.17;38.32;100510.16;4473613;28;20205;-62
2023/06/13 02:29:36;;;;;;;1.75;1.65;;;;;;;24.13;38.03;100507.28;4487383;28;20337;-62
2023/06/13 02:31:47;;;;;;;1.70;1.60;;;;;;;24.19;38.00;100520.09;4472676;28;20035;-62
2023/06/13 02:33:57;;;;;;;2.00;1.80;;;;;;;24.11;38.20;100506.81;4488849;28;20045;-62
2023/06/13 02:36:08;;;;;;;1.92;1.65;;;;;;;24.17;37.99;100519.66;4488165;28;20026;-62
2023/06/13 02:38:18;;;;;;;1.83;1.73;;;;;;;24.15;38.33;100525.00;4480385;28;20046;-62
2023/06/13 02:40:30;;;;;;;2.05;1.85;;;;;;;24.13;38.15;100518.81;4488747;28;20134;-62
2023/06/13 02:42:41;;;;;;;1.77;1.67;;;;;;;24.14;38.04;100513.84;4474626;28;20155;-62
2023/06/13 02:44:51;;;;;;;1.70;1.60;;;;;;;24.12;38.23;100507.66;4488811;28;20762;-62
2023/06/13 02:47:02;;;;;;;1.58;1.48;;;;;;;23.93;38.21;100476.09;4478736;28;20129;-62
2023/06/13 02:49:12;;;;;;;2.00;1.80;;;;;;;24.08;37.97;100501.84;4472178;28;20039;-62
2023/06/13 02:51:22;;;;;;;1.90;1.58;;;;;;;24.15;37.75;100513.44;4469614;28;20031;-62
2023/06/13 02:53:33;;;;;;;1.85;1.65;;;;;;;24.14;37.53;100508.91;4470772;28;20030;-62
2023/06/13 02:55:44;;;;;;;1.98;1.77;;;;;;;24.15;37.40;100509.75;4471363;28;20178;-62
2023/06/13 02:57:55;;;;;;;2.00;1.80;;;;;;;24.06;37.44;100498.53;4478532;28;20791;-61
2023/06/13 03:00:09;;;;;;;2.00;1.77;;;;;;;24.15;37.39;100513.44;4487470;28;20117;-62
2023/06/13 03:02:25;;;;;;;1.83;1.70;;;;;;;24.14;37.49;100513.84;4475444;28;20177;-62
2023/06/13 03:04:36;;;;;;;1.70;1.60;;;;;;;24.13;37.34;100521.69;4477848;28;20630;-62
2023/06/13 03:06:49;;;;;;;1.60;1.50;;;;;;;24.13;37.47;100527.47;4485907;28;20041;-62
2023/06/13 03:09:03;;;;;;;1.98;1.67;;;;;;;24.11;37.47;100527.00;4478641;28;20105;-62
2023/06/13 03:11:16;;;;;;;2.10;1.90;;;;;;;24.09;37.28;100526.56;4472326;28;20029;-62
2023/06/13 03:13:27;;;;;;;1.70;1.60;;;;;;;24.10;37.10;100521.63;4472885;28;20642;-62
2023/06/13 03:15:38;;;;;;;1.85;1.70;;;;;;;24.12;37.82;100524.97;4487126;28;20524;-62
2023/06/13 03:17:49;;;;;;;2.00;1.80;;;;;;;24.12;37.77;100527.84;4463534;28;20137;-62
2023/06/13 03:20:00;;;;;;;1.98;1.77;;;;;;;24.13;38.38;100527.47;4485242;28;20132;-62
2023/06/13 03:22:14;;;;;;;1.63;1.52;;;;;;;24.14;38.92;100531.16;4487106;28;20037;-62
2023/06/13 03:24:24;;;;;;;1.83;1.65;;;;;;;24.12;38.39;100528.66;4486368;28;20030;-62
2023/06/13 03:26:37;;;;;;;1.85;1.67;;;;;;;24.10;38.35;100522.44;4471354;28;20070;-62
2023/06/13 03:28:50;;;;;;;2.13;1.65;;;;;;;24.10;38.31;100513.00;4486274;28;20580;-62
2023/06/13 03:31:00;;;;;;;2.00;1.80;;;;;;;24.08;37.81;100515.44;4462527;28;20034;-62
2023/06/13 03:33:13;;;;;;;1.88;1.60;;;;;;;24.13;38.01;100527.47;4479508;28;20088;-62
2023/06/13 03:35:27;;;;;;;1.70;1.60;;;;;;;24.09;38.21;100520.78;4467717;28;20068;-62
2023/06/13 03:37:37;;;;;;;2.15;1.95;;;;;;;23.97;38.33;100500.88;4478090;28;20038;-62
2023/06/13 03:39:48;;;;;;;1.65;1.55;;;;;;;24.10;38.23;100525.31;4486837;28;20073;-62
2023/06/13 03:42:00;;;;;;;2.00;1.80;;;;;;;24.10;38.08;100519.56;4486752;28;20046;-62
2023/06/13 03:44:10;;;;;;;1.75;1.58;;;;;;;24.02;38.14;100514.97;4480252;28;20109;-62
2023/06/13 03:46:21;;;;;;;1.75;1.65;;;;;;;24.10;38.14;100515.88;4472457;28;20042;-62
2023/06/13 03:48:31;;;;;;;1.98;1.85;;;;;;;24.09;38.19;100523.69;4486934;28;20023;-62
2023/06/13 03:50:42;;;;;;;1.80;1.70;;;;;;;24.06;37.76;100518.72;4478190;28;20827;-62
2023/06/13 03:52:52;;;;;;;2.17;1.90;;;;;;;23.95;37.90;100509.06;4485237;28;20030;-62
2023/06/13 03:55:03;;;;;;;2.08;1.77;;;;;;;24.06;37.60;100514.97;4477424;28;20492;-62
2023/06/13 03:57:15;;;;;;;1.80;1.70;;;;;;;24.05;37.77;100528.59;4460891;28;20701;-62
2023/06/13 03:59:25;;;;;;;1.60;1.50;;;;;;;24.08;38.20;100532.72;4470943;28;20038;-62
2023/06/13 04:01:37;;;;;;;2.10;1.90;;;;;;;24.03;37.50;100522.38;4462720;28;20114;-62
2023/06/13 04:03:47;;;;;;;2.45;1.90;;;;;;;24.06;37.31;100526.50;4485847;28;20174;-62
2023/06/13 04:06:00;;;;;;;1.65;1.55;;;;;;;24.05;37.77;100522.81;4474370;28;20037;-62
2023/06/13 04:08:11;;;;;;;1.70;1.60;;;;;;;24.04;37.67;100529.78;4460994;28;20046;-62
2023/06/13 04:10:22;;;;;;;1.70;1.60;;;;;;;24.06;38.18;100533.13;4477173;28;20384;-62
2023/06/13 04:12:32;;;;;;;1.80;1.70;;;;;;;23.91;37.96;100508.19;4485356;28;20045;-62
2023/06/13 04:14:43;;;;;;;1.73;1.60;;;;;;;23.99;37.95;100527.25;4470923;28;20153;-62
2023/06/13 04:16:53;;;;;;;1.63;1.52;;;;;;;24.05;38.15;100542.16;4485688;28;20084;-62
2023/06/13 04:19:04;;;;;;;2.00;1.60;;;;;;;24.07;38.04;100549.19;4484648;28;20034;-62
2023/06/13 04:21:14;;;;;;;1.70;1.60;;;;;;;24.06;38.35;100546.69;4486457;28;20022;-62
2023/06/13 04:23:25;;;;;;;1.88;1.70;;;;;;;24.04;38.36;100537.63;4471720;28;20070;-62
2023/06/13 04:25:36;;;;;;;1.60;1.50;;;;;;;24.06;38.60;100544.66;4477824;28;20034;-62
2023/06/13 04:27:53;;;;;;;1.73;1.52;;;;;;;24.05;38.23;100539.28;4471477;28;20030;-62
2023/06/13 04:30:04;;;;;;;1.70;1.52;;;;;;;23.89;37.68;100522.16;4477255;28;20037;-63
2023/06/13 04:32:17;;;;;;;1.60;1.50;;;;;;;24.06;37.98;100541.78;4487219;28;20034;-64
2023/06/13 04:34:27;;;;;;;1.70;1.60;;;;;;;24.06;38.11;100550.41;4486233;28;20097;-63
2023/06/13 04:36:41;;;;;;;2.17;1.50;;;;;;;23.87;38.36;100518.00;4490357;28;20301;-64
2023/06/13 04:38:53;;;;;;;1.90;1.35;;;;;;;24.00;38.39;100531.81;4489133;28;20558;-63
2023/06/13 04:41:09;;;;;;;1.90;1.70;;;;;;;23.93;38.57;100516.44;4489947;28;20037;-59
2023/06/13 04:43:21;;;;;;;1.80;1.70;;;;;;;23.92;38.29;100521.38;4478098;28;20057;-61
2023/06/13 04:45:35;;;;;;;1.60;1.50;;;;;;;23.96;38.19;100530.88;4471137;28;20105;-61
2023/06/13 04:47:47;;;;;;;1.83;1.60;;;;;;;23.85;38.09;100527.03;4480507;28;20050;-60
2023/06/13 04:49:58;;;;;;;1.80;1.70;;;;;;;23.86;38.02;100539.41;4488986;28;20061;-60
2023/06/13 04:52:08;;;;;;;2.00;1.80;;;;;;;23.80;38.42;100530.25;4489187;28;20121;-61
2023/06/13 04:54:19;;;;;;;2.10;1.70;;;;;;;23.75;38.78;100536.38;4486970;28;20034;-60
2023/06/13 04:56:29;;;;;;;2.05;1.58;;;;;;;23.75;38.81;100545.03;4473686;28;20075;-60
2023/06/13 04:58:40;;;;;;;1.80;1.70;;;;;;;23.67;38.95;100540.38;4475013;28;20470;-60
2023/06/13 05:00:51;;;;;;;1.70;1.60;;;;;;;23.68;39.20;100544.91;4489587;28;20130;-60
2023/06/13 05:03:02;;;;;;;1.83;1.63;;;;;;;23.66;38.74;100552.31;4488567;28;20097;-60
2023/06/13 05:05:16;;;;;;;1.60;1.50;;;;;;;23.59;38.67;100538.63;4487996;28;20038;-60
2023/06/13 05:07:30;;;;;;;1.80;1.70;;;;;;;23.56;38.74;100542.28;4488536;28;20030;-60
2023/06/13 05:09:43;;;;;;;2.13;1.92;;;;;;;23.58;38.53;100545.59;4488210;28;20034;-60
2023/06/13 05:11:54;;;;;;;1.90;1.70;;;;;;;23.54;38.67;100548.44;4487544;28;20057;-60
2023/06/13 05:14:04;;;;;;;1.90;1.80;;;;;;;23.54;38.75;100548.44;4472898;28;20096;-60
2023/06/13 05:16:14;;;;;;;1.77;1.60;;;;;;;23.53;39.05;100551.69;4488952;28;20044;-60
2023/06/13 05:18:29;;;;;;;2.00;1.75;;;;;;;23.50;39.19;100546.69;4479528;28;20659;-60
2023/06/13 05:20:41;;;;;;;1.83;1.73;;;;;;;23.52;39.58;100553.75;4478192;28;20042;-60
2023/06/13 05:22:56;;;;;;;1.90;1.60;;;;;;;23.48;39.33;100549.97;4486628;28;20359;-60
2023/06/13 05:25:09;;;;;;;1.33;1.23;;;;;;;23.52;39.30;100559.50;4477944;28;20634;-60
2023/06/13 05:27:19;;;;;;;1.70;1.60;;;;;;;23.47;39.25;100550.34;4487292;28;20357;-60
2023/06/13 05:29:30;;;;;;;1.70;1.60;;;;;;;23.43;39.79;100544.56;4485814;28;20490;-60
2023/06/13 05:31:40;;;;;;;1.75;1.65;;;;;;;23.46;39.83;100548.69;4487410;28;20395;-60
2023/06/13 05:33:51;;;;;;;1.65;1.55;;;;;;;23.44;40.11;100551.13;4488307;28;20053;-60
2023/06/13 05:36:01;;;;;;;2.15;1.60;;;;;;;23.46;39.82;100557.34;4475940;28;20038;-60
2023/06/13 05:38:12;;;;;;;1.70;1.60;;;;;;;23.45;39.96;100552.81;4471635;28;20502;-60
2023/06/13 05:40:22;;;;;;;1.50;1.38;;;;;;;23.42;40.59;100553.59;4487091;28;20073;-60
2023/06/13 05:42:35;;;;;;;1.50;1.40;;;;;;;23.43;40.32;100555.25;4488234;28;20375;-59
2023/06/13 05:44:46;;;;;;;1.70;1.60;;;;;;;23.42;40.56;100550.72;4488449;28;20069;-60
2023/06/13 05:46:56;;;;;;;1.90;1.70;;;;;;;23.40;40.13;100556.03;4487248;28;20036;-60
2023/06/13 05:49:07;;;;;;;1.60;1.50;;;;;;;23.41;40.13;100554.78;4487400;28;20033;-59
2023/06/13 05:51:17;;;;;;;1.65;1.38;;;;;;;23.37;40.29;100559.69;4488327;28;20037;-60
2023/06/13 05:53:28;;;;;;;1.55;1.45;;;;;;;23.41;40.43;100569.19;4488017;28;20038;-60
2023/06/13 05:55:38;;;;;;;1.63;1.50;;;;;;;23.32;40.67;100554.25;4468937;28;20622;-60
2023/06/13 05:57:50;;;;;;;1.63;1.52;;;;;;;23.39;40.25;100565.84;4488031;28;20030;-59
2023/06/13 06:00:00;;;;;;;2.15;1.80;;;;;;;23.40;40.37;100561.78;4487344;28;20033;-61
2023/06/13 06:02:11;;;;;;;1.42;1.33;;;;;;;23.37;40.29;100562.56;4486978;28;20042;-59
2023/06/13 06:04:22;;;;;;;1.50;1.40;;;;;;;23.36;40.68;100561.72;4486483;28;20561;-60
2023/06/13 06:06:32;;;;;;;1.60;1.50;;;;;;;23.36;40.90;100560.88;4486692;28;20038;-60
2023/06/13 06:08:43;;;;;;;1.65;1.30;;;;;;;23.34;41.10;100563.34;4461712;28;20641;-59
2023/06/13 06:10:53;;;;;;;1.50;1.40;;;;;;;23.34;40.36;100563.34;4478788;28;20031;-59
2023/06/13 06:13:04;;;;;;;1.80;1.70;;;;;;;23.29;39.95;100560.78;4487556;28;20042;-59
2023/06/13 06:15:14;;;;;;;2.17;1.70;;;;;;;23.30;39.78;100560.38;4486871;28;20030;-59
2023/06/13 06:17:25;;;;;;;1.88;1.70;;;;;;;23.30;40.15;100563.28;4475216;28;20042;-59
2023/06/13 06:19:35;;;;;;;1.85;1.58;;;;;;;23.25;40.46;100554.09;4487677;28;20415;-59
2023/06/13 06:21:46;;;;;;;1.60;1.50;;;;;;;23.28;40.66;100557.06;4485930;28;20034;-60
2023/06/13 06:23:57;;;;;;;1.83;1.73;;;;;;;23.29;40.99;100566.53;4486313;28;20030;-59
2023/06/13 06:26:07;;;;;;;1.60;1.50;;;;;;;23.10;40.80;100541.50;4474181;28;20038;-59
2023/06/13 06:28:18;;;;;;;2.45;1.60;;;;;;;23.26;40.49;100562.38;4478182;28;20050;-59
2023/06/13 06:30:29;;;;;;;1.60;1.50;;;;;;;23.19;40.47;100552.75;4487413;28;20125;-59
2023/06/13 06:32:40;;;;;;;2.50;1.60;;;;;;;23.24;39.89;100563.94;4486205;28;20041;-60
2023/06/13 06:34:50;;;;;;;1.50;1.40;;;;;;;23.25;39.84;100559.84;4487245;28;20038;-61
2023/06/13 06:37:03;;;;;;;1.60;1.50;;;;;;;23.26;40.03;100559.47;4486897;28;20109;-61
2023/06/13 06:39:15;;;;;;;1.60;1.50;;;;;;;23.22;40.35;100551.97;4462094;28;20043;-61
2023/06/13 06:41:25;;;;;;;2.00;1.80;;;;;;;23.29;40.61;100567.34;4487116;28;20038;-61
2023/06/13 06:43:36;;;;;;;1.55;1.45;;;;;;;23.25;40.23;100556.97;4486266;28;20646;-61
2023/06/13 06:45:52;;;;;;;1.83;1.63;;;;;;;23.28;40.27;100568.56;4470091;28;20023;-61
2023/06/13 06:48:03;;;;;;;1.90;1.60;;;;;;;23.28;41.51;100553.34;4486700;28;20058;-61
2023/06/13 06:50:14;;;;;;;2.40;1.75;;;;;;;23.29;41.57;100555.81;4486930;28;20593;-61
2023/06/13 06:52:24;;;;;;;1.77;1.48;;;;;;;23.29;40.81;100552.13;4488233;28;20084;-61
2023/06/13 06:54:35;;;;;;;1.63;1.45;;;;;;;23.27;40.58;100557.44;4487694;28;20034;-61
2023/06/13 06:56:45;;;;;;;1.92;1.75;;;;;;;23.30;40.80;100554.63;4486722;28;20092;-61
2023/06/13 06:58:56;;;;;;;1.40;1.30;;;;;;;23.32;40.18;100555.09;4486862;28;20089;-61
2023/06/13 07:01:06;;;;;;;1.50;1.40;;;;;;;23.26;41.06;100539.31;4487167;28;20187;-61
2023/06/13 07:03:17;;;;;;;2.00;1.40;;;;;;;23.31;40.95;100546.81;4486590;28;20548;-61
2023/06/13 07:05:27;;;;;;;1.67;1.58;;;;;;;23.26;40.95;100541.41;4488495;28;20319;-63
2023/06/13 07:07:38;;;;;;;1.52;1.42;;;;;;;23.31;40.19;100552.56;4487547;28;20029;-63
2023/06/13 07:09:48;;;;;;;2.08;1.60;;;;;;;23.33;41.02;100550.13;4486827;28;20105;-63
2023/06/13 07:11:59;;;;;;;1.80;1.50;;;;;;;23.32;41.31;100555.09;4487091;28;21143;-63
2023/06/13 07:14:09;;;;;;;1.50;1.40;;;;;;;23.16;41.00;100528.44;4488838;28;20097;-63
2023/06/13 07:16:20;;;;;;;1.50;1.40;;;;;;;23.32;41.14;100554.25;4487523;28;21039;-63
2023/06/13 07:18:31;;;;;;;1.63;1.40;;;;;;;23.29;40.26;100550.06;4469836;28;20041;-63
2023/06/13 07:20:41;;;;;;;1.60;1.42;;;;;;;23.32;39.84;100554.25;4486930;28;20142;-63
2023/06/13 07:22:52;;;;;;;1.95;1.50;;;;;;;23.29;39.84;100552.13;4488213;28;20352;-63
2023/06/13 07:25:03;;;;;;;1.73;1.40;;;;;;;23.32;39.08;100554.25;4486994;28;20491;-62
2023/06/13 07:27:15;;;;;;;1.77;1.58;;;;;;;23.32;39.71;100555.09;4486967;28;20100;-63
2023/06/13 07:29:25;;;;;;;1.58;1.45;;;;;;;23.30;39.03;100553.78;4487877;28;20045;-63
2023/06/13 07:31:36;;;;;;;1.50;1.40;;;;;;;23.31;39.55;100552.56;4487409;28;20068;-63
2023/06/13 07:33:47;;;;;;;1.70;1.60;;;;;;;23.34;39.99;100554.69;4487336;28;20077;-63
2023/06/13 07:35:57;;;;;;;1.55;1.45;;;;;;;23.34;38.74;100560.47;4487381;28;20455;-63
2023/06/13 07:38:08;;;;;;;1.50;1.40;;;;;;;23.35;39.70;100567.88;4486046;28;20125;-63
2023/06/13 07:40:21;;;;;;;1.90;1.42;;;;;;;23.33;40.40;100561.66;4487506;28;20026;-64
2023/06/13 07:42:32;;;;;;;1.70;1.40;;;;;;;23.33;39.69;100564.53;4486479;28;20127;-64
2023/06/13 07:44:42;;;;;;;3.17;1.83;;;;;;;23.37;39.50;100563.38;4486726;28;20042;-65
2023/06/13 07:46:52;;;;;;;1.60;1.50;;;;;;;23.30;40.01;100556.66;4486689;28;20022;-64
2023/06/13 07:49:03;;;;;;;1.58;1.48;;;;;;;23.30;39.63;100546.00;4487169;28;20035;-65
2023/06/13 07:51:15;;;;;;;1.60;1.50;;;;;;;23.40;39.34;100561.78;4485768;28;20054;-64
2023/06/13 07:53:25;;;;;;;1.45;1.35;;;;;;;23.42;38.98;100559.34;4486700;28;20022;-62
2023/06/13 07:55:36;;;;;;;1.50;1.40;;;;;;;23.43;38.46;100549.47;4485272;28;20562;-66
2023/06/13 07:57:47;;;;;;;1.65;1.52;;;;;;;23.48;39.17;100554.91;4468924;28;20043;-62
2023/06/13 07:59:58;;;;;;;1.88;1.42;;;;;;;23.46;39.74;100554.47;4486384;28;20026;-62
2023/06/13 08:02:09;;;;;;;1.80;1.40;;;;;;;23.45;40.22;100547.88;4487075;28;20153;-63
2023/06/13 08:04:19;;;;;;;1.75;1.42;;;;;;;23.45;39.19;100549.94;4487577;28;20038;-62
2023/06/13 08:06:30;;;;;;;1.52;1.42;;;;;;;23.45;39.65;100555.69;4474159;28;20062;-63
2023/06/13 08:08:40;;;;;;;1.48;1.33;;;;;;;23.54;42.63;100556.22;4487649;28;20029;-62
2023/06/13 08:10:51;;;;;;;1.30;1.20;;;;;;;23.67;42.96;100554.78;4491622;28;20116;-63
2023/06/13 08:13:01;;;;;;;1.65;1.35;;;;;;;23.72;43.03;100544.97;4490091;28;20085;-64
2023/06/13 08:15:12;;;;;;;1.55;1.45;;;;;;;23.75;42.79;100549.97;4475669;28;20741;-63
2023/06/13 08:17:24;;;;;;;1.40;1.30;;;;;;;23.76;42.90;100540.06;4489708;28;20060;-63
2023/06/13 08:19:34;;;;;;;1.50;1.40;;;;;;;23.81;42.91;100543.47;4489305;28;20150;-62
2023/06/13 08:21:46;;;;;;;1.65;1.55;;;;;;;23.82;42.67;100548.00;4489568;28;20044;-63
2023/06/13 08:23:59;;;;;;;1.20;1.10;;;;;;;23.85;42.91;100547.22;4472820;28;20038;-62
2023/06/13 08:26:09;;;;;;;1.30;1.20;;;;;;;23.85;43.20;100547.22;4487123;28;20035;-62
2023/06/13 08:28:20;;;;;;;1.30;1.20;;;;;;;23.87;43.11;100547.66;4489080;28;20042;-62
2023/06/13 08:30:31;;;;;;;1.20;1.10;;;;;;;23.88;43.22;100549.31;4490635;28;20069;-64
2023/06/13 08:32:41;;;;;;;1.25;1.15;;;;;;;23.88;43.09;100543.53;4488680;28;20066;-62
2023/06/13 08:34:54;;;;;;;2.55;1.45;;;;;;;23.89;43.54;100545.22;4471151;28;20583;-62
2023/06/13 08:37:05;;;;;;;3.15;2.05;;;;;;;23.89;43.83;100547.28;4487529;28;21069;-62
2023/06/13 08:39:16;;;;;;;3.53;2.03;;;;;;;23.87;44.01;100530.38;4489601;28;20042;-62
2023/06/13 08:41:28;;;;;;;3.25;2.10;;;;;;;23.92;44.19;100544.44;4480141;28;20033;-62
2023/06/13 08:43:38;;;;;;;4.18;2.05;;;;;;;23.93;44.25;100542.41;4489585;28;20150;-62
2023/06/13 08:45:49;;;;;;;5.50;2.20;;;;;;;23.92;44.00;100537.84;4488031;28;20038;-62
2023/06/13 08:48:00;;;;;;;2.47;1.70;;;;;;;23.98;45.28;100531.38;4488815;28;20041;-67
2023/06/13 08:50:12;;;;;;;3.35;1.80;;;;;;;24.00;44.72;100525.22;4489598;28;20030;-65
2023/06/13 08:52:25;;;;;;;4.07;1.80;;;;;;;24.10;44.19;100533.97;4489406;28;20026;-66
2023/06/13 08:54:36;;;;;;;7.25;2.13;;;;;;;24.13;44.65;100541.88;4488781;28;20041;-64
2023/06/13 08:56:48;;;;;;;6.05;2.33;;;;;;;24.19;44.84;100531.66;4488499;28;20034;-64
2023/06/13 08:59:07;;;;;;;4.57;1.88;;;;;;;24.28;44.82;100535.03;4488874;28;20042;-66
2023/06/13 09:01:18;;;;;;;4.53;2.10;;;;;;;24.35;44.61;100535.13;4489342;28;20649;-71
2023/06/13 09:03:29;;;;;;;5.18;2.15;;;;;;;24.40;44.20;100537.69;4489385;28;20050;-65
2023/06/13 09:05:40;;;;;;;3.33;2.25;;;;;;;24.45;44.42;100531.53;4488589;28;20042;-64
2023/06/13 09:07:51;;;;;;;5.18;2.00;;;;;;;24.47;44.33;100536.91;4488205;28;20578;-65
2023/06/13 09:10:01;;;;;;;2.63;1.65;;;;;;;24.52;44.05;100528.72;4489389;28;20033;-65
2023/06/13 09:12:13;;;;;;;3.70;1.90;;;;;;;24.53;44.07;100524.59;4488797;28;20189;-65
2023/06/13 09:14:24;;;;;;;2.78;1.90;;;;;;;24.54;44.22;100523.41;4489120;28;20423;-66
2023/06/13 09:16:35;;;;;;;8.40;2.88;;;;;;;24.55;44.04;100516.38;4450671;28;20141;-67
2023/06/13 09:18:45;;;;;;;5.40;2.13;;;;;;;24.57;43.69;100524.66;4458601;28;20582;-67
2023/06/13 09:20:56;;;;;;;5.75;2.03;;;;;;;24.64;43.74;100522.66;4487188;28;20037;-65
2023/06/13 09:23:07;;;;;;;3.85;1.85;;;;;;;24.66;43.93;100526.03;4471975;28;20151;-65
2023/06/13 09:25:20;;;;;;;3.03;1.63;;;;;;;24.70;43.83;100535.56;4487004;28;20029;-68
2023/06/13 09:27:31;;;;;;;4.60;1.92;;;;;;;24.69;43.81;100522.34;4488300;28;20049;-67
2023/06/13 09:29:41;;;;;;;4.30;2.00;;;;;;;24.72;43.92;100527.31;4488622;28;20065;-70
2023/06/13 09:31:57;;;;;;;3.97;2.03;;;;;;;24.67;43.91;100518.19;4488515;28;20758;-69
2023/06/13 09:34:08;;;;;;;2.30;1.80;;;;;;;24.67;43.88;100516.13;4488509;28;20026;-71
2023/06/13 09:36:18;;;;;;;3.67;1.75;;;;;;;24.65;43.94;100517.72;4487509;28;20038;-68
2023/06/13 09:38:34;;;;;;;4.40;1.92;;;;;;;24.65;44.19;100512.78;4488489;28;20057;-68
2023/06/13 09:40:47;;;;;;;5.38;2.00;;;;;;;24.63;43.97;100512.34;4488404;28;20944;-68
2023/06/13 09:43:02;;;;;;;3.03;1.60;;;;;;;24.64;44.46;100518.97;4487744;28;20041;-68
2023/06/13 09:45:12;;;;;;;3.28;1.70;;;;;;;24.59;44.09;100505.69;4487894;28;20067;-65
2023/06/13 09:47:25;;;;;;;2.65;1.55;;;;;;;24.67;44.06;100513.25;4488615;28;20029;-67
2023/06/13 09:49:37;;;;;;;3.65;1.90;;;;;;;24.77;43.76;100521.19;4473051;28;20048;-67
2023/06/13 09:51:50;;;;;;;2.30;1.40;;;;;;;24.79;43.83;100510.06;4488465;28;20580;-66
2023/06/13 09:54:02;;;;;;;2.80;1.60;;;;;;;24.82;43.58;100515.06;4489325;28;20038;-65
2023/06/13 09:56:13;;;;;;;3.60;1.70;;;;;;;24.83;43.46;100510.13;4487442;28;20027;-64
2023/06/13 09:58:23;;;;;;;2.80;1.70;;;;;;;24.83;43.58;100502.25;4486222;28;20074;-64
2023/06/13 10:00:34;;;;;;;2.58;1.52;;;;;;;24.91;43.68;100501.09;4488533;28;20068;-63
2023/06/13 10:02:46;;;;;;;3.08;1.45;;;;;;;24.93;43.41;100503.59;4487698;28;20079;-63
2023/06/13 10:04:56;;;;;;;3.15;1.60;;;;;;;24.97;43.53;100504.47;4488083;28;20030;-64
2023/06/13 10:07:07;;;;;;;3.65;1.70;;;;;;;24.95;43.62;100487.53;4489001;28;20042;-65
2023/06/13 10:09:17;;;;;;;3.25;1.73;;;;;;;25.02;43.52;100501.22;4487227;28;20098;-67
2023/06/13 10:11:34;;;;;;;2.55;1.50;;;;;;;25.07;43.46;100495.03;4478899;28;20080;-72
2023/06/13 10:13:54;;;;;;;;;;;;;;;25.12;43.48;100502.53;4486609;28;20085;-71